Nearby METAR Reports

 

KPBH - Phillips, Wisconsin, USA
Distance from station: SE 13mi, 21km
Updated: 06/19/2019 12:35pm
Partly cloudy
Partly cloudy
 Wind from NNE
Wind: NNE 9 mph , 15 km/h
Temperature: 68°F , 20°C
Dew Point: 52°F , 11°C
Humidity: 56%
Barometer: 29.85 inHg , 1010.8 hPa
Clouds: Partly cloudy
Visibility: 10 miles , 16 km
Cloud details: Partly cloudy 4400 ft
2019/06/19 17:35 KPBH 191735Z AUTO 02008KT 10SM SCT044 20/11 A2985 RMK AO2 T02020106
KRCX - Ladysmith/Rusk, Wisconsin, USA
Distance from station: SW 29mi, 46km
Updated: 06/19/2019 1:15pm
Partly cloudy
Partly cloudy
 Wind from ENE
Wind: ENE 7 mph , 11 km/h
Temperature: 72°F , 22°C
Dew Point: 52°F , 11°C
Humidity: 50%
Barometer: 29.85 inHg , 1010.8 hPa
Clouds: Partly cloudy
Visibility: 10 miles , 16 km
Cloud details: Partly cloudy 4300 ft
2019/06/19 18:15 KRCX 191815Z AUTO 06006KT 10SM SCT043 22/11 A2985 RMK AO2 T02190109
 
KD25 - Manitowish Water, Wisconsin, USA
Distance from station: ENE 41mi, 66km
Updated: 06/19/2019 12:55pm
Mostly cloudy
Mostly cloudy
 Wind from ENE
Wind: ENE 8 mph , 13 km/h
Temperature: 68°F , 20°C
Dew Point: 48°F , 9°C
Humidity: 49%
Barometer: 29.86 inHg , 1011.2 hPa
Clouds: Mostly cloudy
Visibility: 10 miles , 16 km
Cloud details: Mostly cloudy 4900 ft
Mostly cloudy 6000 ft
2019/06/19 17:55 KD25 191755Z AUTO 06007KT 10SM BKN049 BKN060 20/09 A2986 RMK AO2 T02020089 10209 20100
KHYR - Hayward, Wisconsin, USA
Distance from station: WNW 42mi, 68km
Updated: 06/19/2019 12:53pm
Clear
Clear
 Wind from E
Wind: E 13 mph , 20 km/h
Temperature: 72°F , 22°C
Dew Point: 48°F , 9°C
Humidity: 44%
Barometer: 29.85 inHg , 1010.8 hPa
Clouds: Clear
Visibility: 10 miles , 16 km
2019/06/19 17:53 KHYR 191753Z AUTO 08011KT 10SM CLR 22/09 A2985 RMK AO2 SLP107 T02220089 10228 20128 56017
 
KARV - Minocqua/Woodruf, Wisconsin, USA
Distance from station: E 44mi, 71km
Updated: 06/19/2019 12:55pm
Partly cloudy
Partly cloudy
 Wind from NNE
Wind: NNE 5 mph , 7 km/h
Temperature: 72°F , 22°C
Dew Point: 50°F , 10°C
Humidity: 47%
Barometer: 29.85 inHg , 1010.8 hPa
Clouds: Partly cloudy
Visibility: 10 miles , 16 km
Cloud details: Partly cloudy 4500 ft
2019/06/19 17:55 KARV 191755Z AUTO 02004KT 10SM SCT045 22/10 A2985 RMK AO2 T02180103 10222 20110
KTKV - Tomahawk Regnl, Wisconsin, USA
Distance from station: ESE 46mi, 74km
Updated: 06/19/2019 12:35pm
Mostly cloudy
Mostly cloudy
 Wind from ENE
Wind: ENE 3 mph , 6 km/h
Temperature: 68°F , 20°C
Dew Point: 50°F , 10°C
Humidity: 53%
Barometer: 29.85 inHg , 1010.8 hPa
Clouds: Mostly cloudy
Visibility: 10 miles , 16 km
Cloud details: Mostly cloudy 4100 ft
Mostly cloudy 4700 ft
2019/06/19 17:35 KTKV 191735Z AUTO 07003KT 10SM BKN041 BKN047 20/10 A2985 RMK AO2 T02040102 PWINO